sensor_id;sensor_type;location;lat;lon;timestamp;P1;durP1;ratioP1;P2;durP2;ratioP2
62925;SDS011;55732;52.248;-0.844;2022-09-09T00:00:38;10.30;;;2.80;;
62925;SDS011;55732;52.248;-0.844;2022-09-09T00:03:14;16.50;;;3.40;;
62925;SDS011;55732;52.248;-0.844;2022-09-09T00:08:20;8.40;;;2.70;;
62925;SDS011;55732;52.248;-0.844;2022-09-09T00:10:54;10.20;;;3.00;;
62925;SDS011;55732;52.248;-0.844;2022-09-09T00:16:20;8.60;;;3.80;;
62925;SDS011;55732;52.248;-0.844;2022-09-09T00:21:22;8.60;;;2.70;;
62925;SDS011;55732;52.248;-0.844;2022-09-09T00:23:56;12.80;;;2.70;;
62925;SDS011;55732;52.248;-0.844;2022-09-09T00:31:35;9.40;;;2.80;;
62925;SDS011;55732;52.248;-0.844;2022-09-09T00:36:39;14.10;;;3.20;;
62925;SDS011;55732;52.248;-0.844;2022-09-09T00:39:08;9.40;;;2.80;;
62925;SDS011;55732;52.248;-0.844;2022-09-09T00:55:54;10.90;;;3.30;;
62925;SDS011;55732;52.248;-0.844;2022-09-09T00:58:30;12.50;;;3.50;;
62925;SDS011;55732;52.248;-0.844;2022-09-09T01:03:34;11.10;;;2.90;;
62925;SDS011;55732;52.248;-0.844;2022-09-09T01:11:29;8.70;;;2.60;;
62925;SDS011;55732;52.248;-0.844;2022-09-09T01:14:11;10.40;;;3.30;;
62925;SDS011;55732;52.248;-0.844;2022-09-09T01:16:48;11.10;;;2.90;;
62925;SDS011;55732;52.248;-0.844;2022-09-09T01:19:19;8.00;;;3.30;;
62925;SDS011;55732;52.248;-0.844;2022-09-09T01:22:03;8.70;;;3.10;;
62925;SDS011;55732;52.248;-0.844;2022-09-09T01:27:19;14.50;;;3.80;;
62925;SDS011;55732;52.248;-0.844;2022-09-09T01:35:27;11.70;;;3.50;;
62925;SDS011;55732;52.248;-0.844;2022-09-09T01:38:00;11.30;;;3.20;;
62925;SDS011;55732;52.248;-0.844;2022-09-09T01:40:25;9.50;;;3.70;;
62925;SDS011;55732;52.248;-0.844;2022-09-09T01:42:51;13.70;;;3.60;;
62925;SDS011;55732;52.248;-0.844;2022-09-09T01:45:18;12.60;;;3.40;;
62925;SDS011;55732;52.248;-0.844;2022-09-09T01:47:44;11.90;;;3.90;;
62925;SDS011;55732;52.248;-0.844;2022-09-09T01:50:11;12.70;;;3.70;;
62925;SDS011;55732;52.248;-0.844;2022-09-09T01:52:39;13.00;;;3.90;;
62925;SDS011;55732;52.248;-0.844;2022-09-09T01:55:06;15.00;;;4.10;;
62925;SDS011;55732;52.248;-0.844;2022-09-09T01:57:44;12.60;;;3.70;;
62925;SDS011;55732;52.248;-0.844;2022-09-09T02:00:19;12.10;;;3.70;;
62925;SDS011;55732;52.248;-0.844;2022-09-09T02:08:08;9.40;;;4.10;;
62925;SDS011;55732;52.248;-0.844;2022-09-09T02:10:56;11.50;;;4.10;;
62925;SDS011;55732;52.248;-0.844;2022-09-09T02:13:26;9.50;;;4.10;;
62925;SDS011;55732;52.248;-0.844;2022-09-09T02:16:04;7.60;;;3.90;;
62925;SDS011;55732;52.248;-0.844;2022-09-09T02:21:08;7.40;;;3.80;;
62925;SDS011;55732;52.248;-0.844;2022-09-09T02:23:36;10.80;;;4.60;;
62925;SDS011;55732;52.248;-0.844;2022-09-09T02:26:04;10.90;;;4.80;;
62925;SDS011;55732;52.248;-0.844;2022-09-09T02:28:32;10.00;;;4.80;;
62925;SDS011;55732;52.248;-0.844;2022-09-09T02:31:01;8.90;;;4.40;;
62925;SDS011;55732;52.248;-0.844;2022-09-09T02:33:28;8.00;;;4.40;;
62925;SDS011;55732;52.248;-0.844;2022-09-09T02:35:59;9.70;;;4.40;;
62925;SDS011;55732;52.248;-0.844;2022-09-09T02:38:29;11.30;;;4.50;;
62925;SDS011;55732;52.248;-0.844;2022-09-09T02:41:00;10.10;;;4.40;;
62925;SDS011;55732;52.248;-0.844;2022-09-09T02:43:30;14.30;;;4.10;;
62925;SDS011;55732;52.248;-0.844;2022-09-09T02:46:01;12.10;;;4.50;;
62925;SDS011;55732;52.248;-0.844;2022-09-09T02:48:35;11.30;;;5.00;;
62925;SDS011;55732;52.248;-0.844;2022-09-09T02:54:34;8.60;;;4.40;;
62925;SDS011;55732;52.248;-0.844;2022-09-09T02:59:52;8.10;;;4.10;;
62925;SDS011;55732;52.248;-0.844;2022-09-09T03:02:18;10.30;;;4.50;;
62925;SDS011;55732;52.248;-0.844;2022-09-09T03:04:44;11.60;;;4.80;;
62925;SDS011;55732;52.248;-0.844;2022-09-09T03:07:15;11.60;;;5.00;;
62925;SDS011;55732;52.248;-0.844;2022-09-09T03:09:42;10.10;;;5.40;;
62925;SDS011;55732;52.248;-0.844;2022-09-09T03:12:07;10.90;;;5.00;;
62925;SDS011;55732;52.248;-0.844;2022-09-09T03:14:33;11.30;;;4.60;;
62925;SDS011;55732;52.248;-0.844;2022-09-09T03:16:58;10.90;;;5.00;;
62925;SDS011;55732;52.248;-0.844;2022-09-09T03:19:26;12.60;;;5.30;;
62925;SDS011;55732;52.248;-0.844;2022-09-09T03:21:52;9.60;;;4.90;;
62925;SDS011;55732;52.248;-0.844;2022-09-09T03:24:18;11.00;;;4.90;;
62925;SDS011;55732;52.248;-0.844;2022-09-09T03:26:44;12.50;;;5.60;;
62925;SDS011;55732;52.248;-0.844;2022-09-09T03:29:10;9.40;;;5.70;;
62925;SDS011;55732;52.248;-0.844;2022-09-09T03:31:37;11.40;;;5.30;;
62925;SDS011;55732;52.248;-0.844;2022-09-09T03:34:03;10.50;;;6.90;;
62925;SDS011;55732;52.248;-0.844;2022-09-09T03:36:28;9.80;;;6.30;;
62925;SDS011;55732;52.248;-0.844;2022-09-09T03:38:54;10.20;;;5.70;;
62925;SDS011;55732;52.248;-0.844;2022-09-09T03:41:23;9.20;;;6.20;;
62925;SDS011;55732;52.248;-0.844;2022-09-09T03:43:50;10.50;;;6.60;;
62925;SDS011;55732;52.248;-0.844;2022-09-09T03:46:16;10.10;;;6.40;;
62925;SDS011;55732;52.248;-0.844;2022-09-09T03:48:43;10.90;;;6.50;;
62925;SDS011;55732;52.248;-0.844;2022-09-09T03:51:08;10.90;;;6.00;;
62925;SDS011;55732;52.248;-0.844;2022-09-09T03:53:34;9.30;;;6.00;;
62925;SDS011;55732;52.248;-0.844;2022-09-09T03:56:00;11.20;;;6.10;;
62925;SDS011;55732;52.248;-0.844;2022-09-09T03:58:26;8.90;;;6.10;;
62925;SDS011;55732;52.248;-0.844;2022-09-09T04:01:03;12.30;;;6.50;;
62925;SDS011;55732;52.248;-0.844;2022-09-09T04:03:30;10.40;;;6.20;;
62925;SDS011;55732;52.248;-0.844;2022-09-09T04:05:57;10.10;;;6.30;;
62925;SDS011;55732;52.248;-0.844;2022-09-09T04:08:24;12.90;;;7.10;;
62925;SDS011;55732;52.248;-0.844;2022-09-09T04:10:51;12.40;;;6.60;;
62925;SDS011;55732;52.248;-0.844;2022-09-09T04:13:17;11.60;;;6.40;;
62925;SDS011;55732;52.248;-0.844;2022-09-09T04:15:43;10.80;;;6.50;;
62925;SDS011;55732;52.248;-0.844;2022-09-09T04:18:15;10.00;;;6.70;;
62925;SDS011;55732;52.248;-0.844;2022-09-09T04:20:40;11.80;;;6.50;;
62925;SDS011;55732;52.248;-0.844;2022-09-09T04:23:05;11.70;;;6.30;;
62925;SDS011;55732;52.248;-0.844;2022-09-09T04:25:31;12.30;;;6.90;;
62925;SDS011;55732;52.248;-0.844;2022-09-09T04:27:57;12.40;;;6.50;;
62925;SDS011;55732;52.248;-0.844;2022-09-09T04:30:23;12.20;;;6.50;;
62925;SDS011;55732;52.248;-0.844;2022-09-09T04:32:50;11.30;;;6.30;;
62925;SDS011;55732;52.248;-0.844;2022-09-09T04:35:16;12.10;;;7.40;;
62925;SDS011;55732;52.248;-0.844;2022-09-09T04:37:41;10.40;;;7.00;;
62925;SDS011;55732;52.248;-0.844;2022-09-09T04:40:07;12.50;;;7.30;;
62925;SDS011;55732;52.248;-0.844;2022-09-09T04:45:03;10.00;;;7.40;;
62925;SDS011;55732;52.248;-0.844;2022-09-09T04:47:29;13.90;;;7.90;;
62925;SDS011;55732;52.248;-0.844;2022-09-09T04:49:54;11.70;;;7.40;;
62925;SDS011;55732;52.248;-0.844;2022-09-09T04:52:21;14.50;;;8.30;;
62925;SDS011;55732;52.248;-0.844;2022-09-09T04:54:47;15.30;;;8.60;;
62925;SDS011;55732;52.248;-0.844;2022-09-09T04:57:13;14.90;;;9.00;;
62925;SDS011;55732;52.248;-0.844;2022-09-09T04:59:38;12.70;;;8.10;;
62925;SDS011;55732;52.248;-0.844;2022-09-09T05:02:04;17.20;;;8.40;;
62925;SDS011;55732;52.248;-0.844;2022-09-09T05:04:30;15.50;;;8.30;;
62925;SDS011;55732;52.248;-0.844;2022-09-09T05:06:55;12.10;;;8.20;;
62925;SDS011;55732;52.248;-0.844;2022-09-09T05:09:21;13.20;;;8.70;;
62925;SDS011;55732;52.248;-0.844;2022-09-09T05:11:46;11.40;;;8.20;;
62925;SDS011;55732;52.248;-0.844;2022-09-09T05:14:11;15.20;;;8.30;;
62925;SDS011;55732;52.248;-0.844;2022-09-09T05:16:37;15.90;;;8.90;;
62925;SDS011;55732;52.248;-0.844;2022-09-09T05:19:02;15.90;;;7.90;;
62925;SDS011;55732;52.248;-0.844;2022-09-09T05:21:28;14.10;;;8.20;;
62925;SDS011;55732;52.248;-0.844;2022-09-09T05:23:55;14.90;;;8.20;;
62925;SDS011;55732;52.248;-0.844;2022-09-09T05:26:21;13.50;;;8.40;;
62925;SDS011;55732;52.248;-0.844;2022-09-09T05:28:48;20.30;;;9.80;;
62925;SDS011;55732;52.248;-0.844;2022-09-09T05:31:14;14.90;;;10.00;;
62925;SDS011;55732;52.248;-0.844;2022-09-09T05:33:41;14.50;;;8.80;;
62925;SDS011;55732;52.248;-0.844;2022-09-09T05:36:12;16.50;;;8.90;;
62925;SDS011;55732;52.248;-0.844;2022-09-09T05:38:41;17.00;;;8.90;;
62925;SDS011;55732;52.248;-0.844;2022-09-09T05:41:08;13.20;;;9.00;;
62925;SDS011;55732;52.248;-0.844;2022-09-09T05:43:36;19.90;;;9.20;;
62925;SDS011;55732;52.248;-0.844;2022-09-09T05:46:06;17.70;;;10.00;;
62925;SDS011;55732;52.248;-0.844;2022-09-09T05:48:37;18.20;;;9.70;;
62925;SDS011;55732;52.248;-0.844;2022-09-09T05:51:04;20.20;;;9.80;;
62925;SDS011;55732;52.248;-0.844;2022-09-09T05:53:33;17.70;;;10.10;;
62925;SDS011;55732;52.248;-0.844;2022-09-09T05:56:05;13.80;;;9.40;;
62925;SDS011;55732;52.248;-0.844;2022-09-09T05:58:35;18.20;;;9.30;;
62925;SDS011;55732;52.248;-0.844;2022-09-09T06:01:09;14.60;;;8.70;;
62925;SDS011;55732;52.248;-0.844;2022-09-09T06:03:39;16.00;;;8.90;;
62925;SDS011;55732;52.248;-0.844;2022-09-09T06:06:06;13.30;;;8.80;;
62925;SDS011;55732;52.248;-0.844;2022-09-09T06:08:35;19.20;;;9.90;;
62925;SDS011;55732;52.248;-0.844;2022-09-09T06:11:04;16.90;;;8.90;;
62925;SDS011;55732;52.248;-0.844;2022-09-09T06:13:34;17.00;;;9.40;;
62925;SDS011;55732;52.248;-0.844;2022-09-09T06:16:00;16.60;;;9.10;;
62925;SDS011;55732;52.248;-0.844;2022-09-09T06:18:26;22.50;;;11.80;;
62925;SDS011;55732;52.248;-0.844;2022-09-09T06:20:55;20.70;;;12.40;;
62925;SDS011;55732;52.248;-0.844;2022-09-09T06:23:21;21.40;;;11.60;;
62925;SDS011;55732;52.248;-0.844;2022-09-09T06:25:47;18.10;;;11.10;;
62925;SDS011;55732;52.248;-0.844;2022-09-09T06:28:14;20.60;;;12.90;;
62925;SDS011;55732;52.248;-0.844;2022-09-09T06:30:40;17.50;;;12.40;;
62925;SDS011;55732;52.248;-0.844;2022-09-09T06:33:06;20.30;;;12.60;;
62925;SDS011;55732;52.248;-0.844;2022-09-09T06:35:32;22.60;;;12.90;;
62925;SDS011;55732;52.248;-0.844;2022-09-09T06:37:57;24.20;;;14.70;;
62925;SDS011;55732;52.248;-0.844;2022-09-09T06:40:23;27.00;;;15.60;;
62925;SDS011;55732;52.248;-0.844;2022-09-09T06:42:49;25.30;;;15.70;;
62925;SDS011;55732;52.248;-0.844;2022-09-09T06:45:15;28.30;;;16.80;;
62925;SDS011;55732;52.248;-0.844;2022-09-09T06:47:40;28.50;;;17.30;;
62925;SDS011;55732;52.248;-0.844;2022-09-09T06:50:06;28.20;;;16.50;;
62925;SDS011;55732;52.248;-0.844;2022-09-09T06:52:32;28.60;;;16.60;;
62925;SDS011;55732;52.248;-0.844;2022-09-09T06:54:58;29.60;;;17.10;;
62925;SDS011;55732;52.248;-0.844;2022-09-09T06:57:24;25.30;;;15.50;;
62925;SDS011;55732;52.248;-0.844;2022-09-09T06:59:49;23.10;;;15.30;;
62925;SDS011;55732;52.248;-0.844;2022-09-09T07:02:15;24.50;;;15.30;;
62925;SDS011;55732;52.248;-0.844;2022-09-09T07:04:41;26.20;;;15.40;;
62925;SDS011;55732;52.248;-0.844;2022-09-09T07:07:06;25.40;;;15.50;;
62925;SDS011;55732;52.248;-0.844;2022-09-09T07:09:33;25.50;;;14.50;;
62925;SDS011;55732;52.248;-0.844;2022-09-09T07:11:58;25.10;;;15.30;;
62925;SDS011;55732;52.248;-0.844;2022-09-09T07:14:24;24.40;;;16.10;;
62925;SDS011;55732;52.248;-0.844;2022-09-09T07:16:50;22.10;;;14.90;;
62925;SDS011;55732;52.248;-0.844;2022-09-09T07:19:15;22.30;;;14.40;;
62925;SDS011;55732;52.248;-0.844;2022-09-09T07:21:42;19.40;;;12.90;;
62925;SDS011;55732;52.248;-0.844;2022-09-09T07:24:08;16.90;;;10.10;;
62925;SDS011;55732;52.248;-0.844;2022-09-09T07:26:35;17.70;;;10.80;;
62925;SDS011;55732;52.248;-0.844;2022-09-09T07:29:02;21.60;;;12.00;;
62925;SDS011;55732;52.248;-0.844;2022-09-09T07:31:29;22.30;;;14.20;;
62925;SDS011;55732;52.248;-0.844;2022-09-09T07:33:56;21.60;;;13.20;;
62925;SDS011;55732;52.248;-0.844;2022-09-09T07:36:23;20.90;;;13.40;;
62925;SDS011;55732;52.248;-0.844;2022-09-09T07:38:57;19.10;;;11.90;;
62925;SDS011;55732;52.248;-0.844;2022-09-09T07:41:28;17.40;;;11.70;;
62925;SDS011;55732;52.248;-0.844;2022-09-09T07:44:16;21.50;;;12.20;;
62925;SDS011;55732;52.248;-0.844;2022-09-09T07:46:43;20.00;;;12.20;;
62925;SDS011;55732;52.248;-0.844;2022-09-09T07:49:10;19.30;;;11.60;;
62925;SDS011;55732;52.248;-0.844;2022-09-09T07:51:40;21.70;;;12.00;;
62925;SDS011;55732;52.248;-0.844;2022-09-09T07:54:09;17.00;;;10.90;;
62925;SDS011;55732;52.248;-0.844;2022-09-09T07:56:36;20.50;;;11.60;;
62925;SDS011;55732;52.248;-0.844;2022-09-09T07:59:03;22.70;;;12.10;;
62925;SDS011;55732;52.248;-0.844;2022-09-09T08:01:36;21.30;;;12.80;;
62925;SDS011;55732;52.248;-0.844;2022-09-09T08:04:07;19.60;;;11.50;;
62925;SDS011;55732;52.248;-0.844;2022-09-09T08:06:35;22.50;;;13.00;;
62925;SDS011;55732;52.248;-0.844;2022-09-09T08:09:05;18.10;;;11.00;;
62925;SDS011;55732;52.248;-0.844;2022-09-09T08:11:32;20.80;;;12.50;;
62925;SDS011;55732;52.248;-0.844;2022-09-09T08:13:58;22.80;;;12.20;;
62925;SDS011;55732;52.248;-0.844;2022-09-09T08:16:25;20.10;;;12.80;;
62925;SDS011;55732;52.248;-0.844;2022-09-09T08:18:53;22.20;;;12.50;;
62925;SDS011;55732;52.248;-0.844;2022-09-09T08:21:24;17.40;;;11.30;;
62925;SDS011;55732;52.248;-0.844;2022-09-09T08:23:53;20.40;;;13.50;;
62925;SDS011;55732;52.248;-0.844;2022-09-09T08:26:21;20.60;;;13.60;;
62925;SDS011;55732;52.248;-0.844;2022-09-09T08:28:49;19.40;;;12.60;;
62925;SDS011;55732;52.248;-0.844;2022-09-09T08:31:36;23.10;;;12.60;;
62925;SDS011;55732;52.248;-0.844;2022-09-09T08:34:04;20.70;;;12.60;;
62925;SDS011;55732;52.248;-0.844;2022-09-09T08:36:32;25.40;;;14.10;;
62925;SDS011;55732;52.248;-0.844;2022-09-09T08:38:59;18.80;;;12.30;;
62925;SDS011;55732;52.248;-0.844;2022-09-09T08:55:36;19.50;;;11.10;;
62925;SDS011;55732;52.248;-0.844;2022-09-09T08:58:17;15.10;;;9.60;;
62925;SDS011;55732;52.248;-0.844;2022-09-09T09:03:22;10.90;;;9.00;;
62925;SDS011;55732;52.248;-0.844;2022-09-09T09:11:12;12.60;;;8.30;;
62925;SDS011;55732;52.248;-0.844;2022-09-09T09:19:03;13.10;;;7.80;;
62925;SDS011;55732;52.248;-0.844;2022-09-09T09:21:42;9.10;;;6.90;;
62925;SDS011;55732;52.248;-0.844;2022-09-09T09:24:33;9.80;;;7.40;;
62925;SDS011;55732;52.248;-0.844;2022-09-09T09:27:12;10.00;;;7.30;;
62925;SDS011;55732;52.248;-0.844;2022-09-09T09:29:39;10.40;;;6.70;;
62925;SDS011;55732;52.248;-0.844;2022-09-09T09:32:10;8.60;;;6.60;;
62925;SDS011;55732;52.248;-0.844;2022-09-09T09:34:39;10.10;;;6.20;;
62925;SDS011;55732;52.248;-0.844;2022-09-09T09:37:17;14.40;;;7.80;;
62925;SDS011;55732;52.248;-0.844;2022-09-09T09:39:52;11.40;;;5.90;;
62925;SDS011;55732;52.248;-0.844;2022-09-09T09:42:18;10.60;;;7.90;;
62925;SDS011;55732;52.248;-0.844;2022-09-09T09:44:44;12.60;;;8.00;;
62925;SDS011;55732;52.248;-0.844;2022-09-09T09:47:13;13.50;;;8.30;;
62925;SDS011;55732;52.248;-0.844;2022-09-09T09:49:54;11.80;;;7.10;;
62925;SDS011;55732;52.248;-0.844;2022-09-09T09:52:27;9.90;;;6.80;;
62925;SDS011;55732;52.248;-0.844;2022-09-09T09:54:54;8.50;;;6.20;;
62925;SDS011;55732;52.248;-0.844;2022-09-09T09:57:23;7.90;;;5.40;;
62925;SDS011;55732;52.248;-0.844;2022-09-09T10:02:43;8.80;;;5.80;;
62925;SDS011;55732;52.248;-0.844;2022-09-09T10:05:15;9.00;;;5.40;;
62925;SDS011;55732;52.248;-0.844;2022-09-09T10:07:43;9.30;;;4.60;;
62925;SDS011;55732;52.248;-0.844;2022-09-09T10:24:22;8.40;;;4.20;;
62925;SDS011;55732;52.248;-0.844;2022-09-09T10:30:19;6.70;;;3.50;;
62925;SDS011;55732;52.248;-0.844;2022-09-09T10:33:04;7.20;;;3.40;;
62925;SDS011;55732;52.248;-0.844;2022-09-09T10:35:53;6.70;;;3.90;;
62925;SDS011;55732;52.248;-0.844;2022-09-09T10:44:14;6.90;;;3.70;;
62925;SDS011;55732;52.248;-0.844;2022-09-09T10:47:25;8.00;;;4.10;;
62925;SDS011;55732;52.248;-0.844;2022-09-09T10:52:53;9.70;;;4.20;;
62925;SDS011;55732;52.248;-0.844;2022-09-09T10:55:24;7.40;;;4.40;;
62925;SDS011;55732;52.248;-0.844;2022-09-09T10:58:02;14.90;;;4.70;;
62925;SDS011;55732;52.248;-0.844;2022-09-09T11:00:46;6.40;;;4.50;;
62925;SDS011;55732;52.248;-0.844;2022-09-09T11:03:24;8.40;;;4.90;;
62925;SDS011;55732;52.248;-0.844;2022-09-09T11:06:01;9.30;;;5.70;;
62925;SDS011;55732;52.248;-0.844;2022-09-09T11:08:29;11.10;;;5.80;;
62925;SDS011;55732;52.248;-0.844;2022-09-09T11:13:53;10.40;;;5.40;;
62925;SDS011;55732;52.248;-0.844;2022-09-09T11:16:34;10.60;;;5.80;;
62925;SDS011;55732;52.248;-0.844;2022-09-09T11:19:11;9.60;;;5.60;;
62925;SDS011;55732;52.248;-0.844;2022-09-09T11:21:46;10.20;;;6.20;;
62925;SDS011;55732;52.248;-0.844;2022-09-09T11:24:22;9.90;;;5.70;;
62925;SDS011;55732;52.248;-0.844;2022-09-09T11:27:00;11.60;;;5.90;;
62925;SDS011;55732;52.248;-0.844;2022-09-09T11:40:43;10.00;;;6.50;;
62925;SDS011;55732;52.248;-0.844;2022-09-09T11:43:52;11.80;;;6.30;;
62925;SDS011;55732;52.248;-0.844;2022-09-09T11:46:04;9.90;;;5.50;;
62925;SDS011;55732;52.248;-0.844;2022-09-09T11:48:34;10.40;;;5.70;;
62925;SDS011;55732;52.248;-0.844;2022-09-09T11:51:25;10.60;;;6.00;;
62925;SDS011;55732;52.248;-0.844;2022-09-09T11:53:54;10.10;;;5.30;;
62925;SDS011;55732;52.248;-0.844;2022-09-09T11:56:32;9.10;;;5.50;;
62925;SDS011;55732;52.248;-0.844;2022-09-09T12:01:30;9.60;;;5.30;;
62925;SDS011;55732;52.248;-0.844;2022-09-09T12:06:54;11.60;;;5.40;;
62925;SDS011;55732;52.248;-0.844;2022-09-09T12:09:48;7.30;;;4.60;;
62925;SDS011;55732;52.248;-0.844;2022-09-09T12:12:27;6.00;;;4.60;;
62925;SDS011;55732;52.248;-0.844;2022-09-09T12:14:55;12.20;;;5.00;;
62925;SDS011;55732;52.248;-0.844;2022-09-09T12:17:22;8.90;;;4.40;;
62925;SDS011;55732;52.248;-0.844;2022-09-09T12:30:48;6.50;;;4.30;;
62925;SDS011;55732;52.248;-0.844;2022-09-09T12:35:43;7.20;;;3.90;;
62925;SDS011;55732;52.248;-0.844;2022-09-09T12:38:12;10.90;;;4.80;;
62925;SDS011;55732;52.248;-0.844;2022-09-09T12:40:53;11.20;;;4.50;;
62925;SDS011;55732;52.248;-0.844;2022-09-09T12:43:21;6.60;;;3.90;;
62925;SDS011;55732;52.248;-0.844;2022-09-09T12:45:48;8.10;;;3.90;;
62925;SDS011;55732;52.248;-0.844;2022-09-09T12:48:21;7.50;;;4.20;;
62925;SDS011;55732;52.248;-0.844;2022-09-09T12:50:53;11.70;;;4.30;;
62925;SDS011;55732;52.248;-0.844;2022-09-09T12:53:29;10.50;;;4.20;;
62925;SDS011;55732;52.248;-0.844;2022-09-09T12:56:01;11.00;;;3.70;;
62925;SDS011;55732;52.248;-0.844;2022-09-09T12:58:32;5.90;;;3.00;;
62925;SDS011;55732;52.248;-0.844;2022-09-09T13:00:58;7.40;;;3.40;;
62925;SDS011;55732;52.248;-0.844;2022-09-09T13:03:25;6.40;;;3.20;;
62925;SDS011;55732;52.248;-0.844;2022-09-09T13:05:51;5.00;;;3.00;;
62925;SDS011;55732;52.248;-0.844;2022-09-09T13:08:18;7.10;;;3.40;;
62925;SDS011;55732;52.248;-0.844;2022-09-09T13:10:51;5.90;;;3.30;;
62925;SDS011;55732;52.248;-0.844;2022-09-09T13:13:56;9.20;;;4.30;;
62925;SDS011;55732;52.248;-0.844;2022-09-09T13:16:22;7.10;;;3.80;;
62925;SDS011;55732;52.248;-0.844;2022-09-09T13:18:57;5.80;;;3.60;;
62925;SDS011;55732;52.248;-0.844;2022-09-09T13:21:34;9.00;;;4.10;;
62925;SDS011;55732;52.248;-0.844;2022-09-09T13:24:03;9.80;;;4.10;;
62925;SDS011;55732;52.248;-0.844;2022-09-09T13:26:32;15.30;;;4.10;;
62925;SDS011;55732;52.248;-0.844;2022-09-09T13:32:03;18.60;;;5.90;;
62925;SDS011;55732;52.248;-0.844;2022-09-09T13:34:34;13.50;;;5.00;;
62925;SDS011;55732;52.248;-0.844;2022-09-09T13:37:01;6.60;;;4.20;;
62925;SDS011;55732;52.248;-0.844;2022-09-09T13:39:32;9.90;;;4.30;;
62925;SDS011;55732;52.248;-0.844;2022-09-09T13:41:59;8.60;;;4.90;;
62925;SDS011;55732;52.248;-0.844;2022-09-09T13:47:39;9.10;;;4.90;;
62925;SDS011;55732;52.248;-0.844;2022-09-09T13:49:48;8.50;;;4.40;;
62925;SDS011;55732;52.248;-0.844;2022-09-09T13:52:17;6.10;;;2.60;;
62925;SDS011;55732;52.248;-0.844;2022-09-09T13:54:50;3.30;;;2.00;;
62925;SDS011;55732;52.248;-0.844;2022-09-09T13:57:21;1.70;;;1.40;;
62925;SDS011;55732;52.248;-0.844;2022-09-09T13:59:50;2.10;;;1.50;;
62925;SDS011;55732;52.248;-0.844;2022-09-09T14:02:22;2.20;;;1.50;;
62925;SDS011;55732;52.248;-0.844;2022-09-09T14:04:49;2.80;;;1.80;;
62925;SDS011;55732;52.248;-0.844;2022-09-09T14:07:16;5.00;;;2.00;;
62925;SDS011;55732;52.248;-0.844;2022-09-09T14:09:42;3.10;;;2.00;;
62925;SDS011;55732;52.248;-0.844;2022-09-09T14:12:09;4.30;;;2.20;;
62925;SDS011;55732;52.248;-0.844;2022-09-09T14:14:36;5.80;;;2.30;;
62925;SDS011;55732;52.248;-0.844;2022-09-09T14:17:02;6.60;;;2.70;;
62925;SDS011;55732;52.248;-0.844;2022-09-09T14:19:28;5.30;;;2.50;;
62925;SDS011;55732;52.248;-0.844;2022-09-09T14:21:55;3.70;;;2.60;;
62925;SDS011;55732;52.248;-0.844;2022-09-09T14:24:21;6.20;;;2.80;;
62925;SDS011;55732;52.248;-0.844;2022-09-09T14:26:46;5.90;;;2.60;;
62925;SDS011;55732;52.248;-0.844;2022-09-09T14:29:12;4.40;;;2.50;;
62925;SDS011;55732;52.248;-0.844;2022-09-09T14:31:38;3.00;;;2.30;;
62925;SDS011;55732;52.248;-0.844;2022-09-09T14:34:03;4.60;;;2.90;;
62925;SDS011;55732;52.248;-0.844;2022-09-09T14:36:29;5.40;;;3.30;;
62925;SDS011;55732;52.248;-0.844;2022-09-09T14:38:55;8.10;;;4.20;;
62925;SDS011;55732;52.248;-0.844;2022-09-09T14:41:20;8.20;;;3.60;;
62925;SDS011;55732;52.248;-0.844;2022-09-09T14:43:47;4.60;;;3.60;;
62925;SDS011;55732;52.248;-0.844;2022-09-09T14:46:14;8.40;;;3.90;;
62925;SDS011;55732;52.248;-0.844;2022-09-09T14:48:41;6.90;;;4.30;;
62925;SDS011;55732;52.248;-0.844;2022-09-09T14:51:11;9.70;;;4.40;;
62925;SDS011;55732;52.248;-0.844;2022-09-09T14:53:42;13.00;;;4.80;;
62925;SDS011;55732;52.248;-0.844;2022-09-09T14:58:41;11.90;;;5.10;;
62925;SDS011;55732;52.248;-0.844;2022-09-09T15:01:09;10.80;;;4.90;;
62925;SDS011;55732;52.248;-0.844;2022-09-09T15:03:39;18.00;;;5.70;;
62925;SDS011;55732;52.248;-0.844;2022-09-09T15:06:10;9.00;;;4.40;;
62925;SDS011;55732;52.248;-0.844;2022-09-09T15:08:37;9.10;;;4.20;;
62925;SDS011;55732;52.248;-0.844;2022-09-09T15:11:05;8.80;;;4.10;;
62925;SDS011;55732;52.248;-0.844;2022-09-09T15:13:35;5.70;;;3.60;;
62925;SDS011;55732;52.248;-0.844;2022-09-09T15:16:12;6.90;;;4.10;;
62925;SDS011;55732;52.248;-0.844;2022-09-09T15:18:39;9.10;;;4.30;;
62925;SDS011;55732;52.248;-0.844;2022-09-09T15:21:08;7.60;;;4.30;;
62925;SDS011;55732;52.248;-0.844;2022-09-09T15:23:46;7.40;;;4.20;;
62925;SDS011;55732;52.248;-0.844;2022-09-09T15:26:16;5.50;;;3.50;;
62925;SDS011;55732;52.248;-0.844;2022-09-09T15:28:43;8.20;;;3.70;;
62925;SDS011;55732;52.248;-0.844;2022-09-09T15:33:48;5.80;;;3.70;;
62925;SDS011;55732;52.248;-0.844;2022-09-09T15:36:22;6.80;;;4.10;;
62925;SDS011;55732;52.248;-0.844;2022-09-09T15:38:50;4.90;;;3.00;;
62925;SDS011;55732;52.248;-0.844;2022-09-09T15:41:16;4.00;;;2.50;;
62925;SDS011;55732;52.248;-0.844;2022-09-09T15:43:44;5.70;;;2.60;;
62925;SDS011;55732;52.248;-0.844;2022-09-09T15:48:42;2.70;;;2.00;;
62925;SDS011;55732;52.248;-0.844;2022-09-09T15:51:12;3.10;;;2.10;;
62925;SDS011;55732;52.248;-0.844;2022-09-09T15:53:38;4.60;;;2.10;;
62925;SDS011;55732;52.248;-0.844;2022-09-09T15:56:07;3.00;;;1.90;;
62925;SDS011;55732;52.248;-0.844;2022-09-09T15:58:33;3.50;;;1.90;;
62925;SDS011;55732;52.248;-0.844;2022-09-09T16:01:07;4.20;;;2.50;;
62925;SDS011;55732;52.248;-0.844;2022-09-09T16:03:37;4.70;;;1.90;;
62925;SDS011;55732;52.248;-0.844;2022-09-09T16:06:06;3.20;;;2.00;;
62925;SDS011;55732;52.248;-0.844;2022-09-09T16:08:36;6.60;;;1.90;;
62925;SDS011;55732;52.248;-0.844;2022-09-09T16:11:06;5.10;;;1.90;;
62925;SDS011;55732;52.248;-0.844;2022-09-09T16:13:37;3.90;;;1.90;;
62925;SDS011;55732;52.248;-0.844;2022-09-09T16:16:04;2.80;;;2.00;;
62925;SDS011;55732;52.248;-0.844;2022-09-09T16:18:38;4.70;;;2.40;;
62925;SDS011;55732;52.248;-0.844;2022-09-09T16:21:05;4.70;;;2.20;;
62925;SDS011;55732;52.248;-0.844;2022-09-09T16:23:34;3.90;;;2.40;;
62925;SDS011;55732;52.248;-0.844;2022-09-09T16:26:00;4.90;;;2.70;;
62925;SDS011;55732;52.248;-0.844;2022-09-09T16:28:26;5.90;;;3.00;;
62925;SDS011;55732;52.248;-0.844;2022-09-09T16:30:53;5.60;;;3.30;;
62925;SDS011;55732;52.248;-0.844;2022-09-09T16:33:19;6.30;;;3.80;;
62925;SDS011;55732;52.248;-0.844;2022-09-09T16:35:44;7.90;;;4.20;;
62925;SDS011;55732;52.248;-0.844;2022-09-09T16:38:10;6.00;;;3.60;;
62925;SDS011;55732;52.248;-0.844;2022-09-09T16:40:39;8.80;;;4.20;;
62925;SDS011;55732;52.248;-0.844;2022-09-09T16:43:06;6.00;;;3.60;;
62925;SDS011;55732;52.248;-0.844;2022-09-09T16:45:32;8.60;;;4.00;;
62925;SDS011;55732;52.248;-0.844;2022-09-09T16:47:58;5.80;;;4.00;;
62925;SDS011;55732;52.248;-0.844;2022-09-09T16:50:25;7.80;;;4.40;;
62925;SDS011;55732;52.248;-0.844;2022-09-09T16:52:51;10.80;;;4.20;;
62925;SDS011;55732;52.248;-0.844;2022-09-09T16:55:17;6.50;;;4.30;;
62925;SDS011;55732;52.248;-0.844;2022-09-09T16:57:45;6.80;;;4.70;;
62925;SDS011;55732;52.248;-0.844;2022-09-09T17:00:14;7.30;;;4.90;;
62925;SDS011;55732;52.248;-0.844;2022-09-09T17:02:41;8.10;;;4.90;;
62925;SDS011;55732;52.248;-0.844;2022-09-09T17:05:07;7.00;;;4.30;;
62925;SDS011;55732;52.248;-0.844;2022-09-09T17:07:34;8.40;;;4.50;;
62925;SDS011;55732;52.248;-0.844;2022-09-09T17:09:59;5.80;;;3.60;;
62925;SDS011;55732;52.248;-0.844;2022-09-09T17:12:25;5.20;;;3.00;;
62925;SDS011;55732;52.248;-0.844;2022-09-09T17:14:50;4.50;;;2.80;;
62925;SDS011;55732;52.248;-0.844;2022-09-09T17:17:16;5.50;;;2.80;;
62925;SDS011;55732;52.248;-0.844;2022-09-09T17:19:42;6.50;;;2.60;;
62925;SDS011;55732;52.248;-0.844;2022-09-09T17:22:07;4.80;;;2.20;;
62925;SDS011;55732;52.248;-0.844;2022-09-09T17:24:33;3.90;;;2.10;;